createdAt,value
2023-04-13T00:01:11.229Z,0.70
2023-04-13T00:03:39.118Z,1.13
2023-04-13T00:06:06.401Z,0.80
2023-04-13T00:08:35.783Z,0.80
2023-04-13T00:11:04.169Z,0.85
2023-04-13T00:13:30.884Z,0.80
2023-04-13T00:15:57.364Z,0.65
2023-04-13T00:18:24.029Z,0.90
2023-04-13T00:20:50.582Z,0.88
2023-04-13T00:23:18.012Z,0.93
2023-04-13T00:25:44.552Z,0.80
2023-04-13T00:28:11.945Z,0.60
2023-04-13T00:30:38.528Z,1.13
2023-04-13T00:33:05.164Z,1.02
2023-04-13T00:35:31.945Z,0.80
2023-04-13T00:37:58.895Z,0.80
2023-04-13T00:40:25.437Z,0.88
2023-04-13T00:42:53.194Z,0.90
2023-04-13T00:45:19.917Z,0.80
2023-04-13T00:47:48.528Z,1.10
2023-04-13T00:50:18.874Z,1.05
2023-04-13T00:52:46.239Z,1.00
2023-04-13T00:55:12.883Z,1.20
2023-04-13T00:57:40.533Z,1.33
2023-04-13T01:00:09.378Z,0.85
2023-04-13T01:02:37.058Z,1.00
2023-04-13T01:05:06.145Z,1.77
2023-04-13T01:07:48.240Z,1.10
2023-04-13T01:10:18.597Z,0.80
2023-04-13T01:13:20.629Z,0.82
2023-04-13T01:16:02.436Z,0.88
2023-04-13T01:18:33.231Z,0.90
2023-04-13T01:21:02.252Z,1.13
2023-04-13T01:23:56.479Z,0.82
2023-04-13T01:26:33.258Z,1.20
2023-04-13T01:29:00.380Z,1.27
2023-04-13T01:31:27.123Z,0.93
2023-04-13T01:33:53.914Z,1.40
2023-04-13T01:36:20.989Z,0.93
2023-04-13T01:38:47.538Z,0.77
2023-04-13T01:41:15.572Z,1.42
2023-04-13T01:43:45.207Z,0.90
2023-04-13T01:46:14.307Z,1.02
2023-04-13T01:49:02.649Z,0.90
2023-04-13T01:51:45.234Z,1.02
2023-04-13T01:54:20.612Z,1.02
2023-04-13T01:56:48.691Z,1.20
2023-04-13T01:59:19.286Z,1.33
2023-04-13T02:01:45.988Z,0.80
2023-04-13T02:04:13.958Z,0.85
2023-04-13T02:06:42.639Z,1.08
2023-04-13T02:09:10.017Z,1.08
2023-04-13T02:11:37.220Z,1.00
2023-04-13T02:14:05.302Z,0.80
2023-04-13T02:16:33.052Z,1.13
2023-04-13T02:19:00.009Z,1.13
2023-04-13T02:21:26.683Z,1.17
2023-04-13T02:23:53.361Z,0.95
2023-04-13T02:26:21.883Z,1.20
2023-04-13T02:28:51.056Z,1.02
2023-04-13T02:31:20.301Z,1.10
2023-04-13T02:33:47.215Z,0.93
2023-04-13T02:36:13.870Z,1.10
2023-04-13T02:38:53.112Z,0.82
2023-04-13T02:41:25.795Z,1.10
2023-04-13T02:43:52.560Z,1.10
2023-04-13T02:46:22.925Z,1.15
2023-04-13T02:48:55.047Z,1.30
2023-04-13T02:51:22.008Z,1.15
2023-04-13T02:53:49.141Z,1.10
2023-04-13T02:56:16.031Z,1.65
2023-04-13T02:58:42.848Z,1.55
2023-04-13T03:01:16.575Z,1.10
2023-04-13T03:03:43.104Z,1.13
2023-04-13T03:06:10.252Z,1.40
2023-04-13T03:08:46.381Z,1.10
2023-04-13T03:11:23.449Z,1.25
2023-04-13T03:13:58.438Z,1.52
2023-04-13T03:16:25.517Z,1.85
2023-04-13T03:18:52.181Z,1.20
2023-04-13T03:21:19.142Z,1.00
2023-04-13T03:24:18.089Z,1.00
2023-04-13T03:26:45.149Z,1.23
2023-04-13T03:29:16.204Z,1.40
2023-04-13T03:31:45.404Z,1.35
2023-04-13T03:34:12.373Z,1.20
2023-04-13T03:36:42.085Z,1.40
2023-04-13T03:39:09.830Z,1.30
2023-04-13T03:41:38.146Z,1.10
2023-04-13T03:44:05.042Z,1.45
2023-04-13T03:46:33.186Z,1.40
2023-04-13T03:49:07.511Z,1.58
2023-04-13T03:51:34.803Z,1.42
2023-04-13T03:54:01.647Z,2.33
2023-04-13T03:56:28.418Z,1.50
2023-04-13T03:58:56.394Z,1.63
2023-04-13T04:01:27.051Z,1.55
2023-04-13T04:03:57.301Z,1.65
2023-04-13T04:06:27.351Z,1.65
2023-04-13T04:09:06.714Z,1.40
2023-04-13T04:11:44.618Z,1.95
2023-04-13T04:14:12.326Z,2.00
2023-04-13T04:16:47.154Z,1.27
2023-04-13T04:19:16.401Z,2.30
2023-04-13T04:21:46.746Z,2.10
2023-04-13T04:24:22.457Z,1.45
2023-04-13T04:26:54.904Z,1.50
2023-04-13T04:29:22.777Z,1.92
2023-04-13T04:31:55.949Z,1.73
2023-04-13T04:34:23.699Z,1.48
2023-04-13T04:36:51.948Z,1.83
2023-04-13T04:39:22.643Z,1.83
2023-04-13T04:42:03.718Z,1.80
2023-04-13T04:44:31.422Z,1.65
2023-04-13T04:47:04.147Z,1.65
2023-04-13T04:49:34.581Z,1.50
2023-04-13T04:52:03.838Z,2.10
2023-04-13T04:54:30.500Z,1.45
2023-04-13T04:56:58.192Z,2.00
2023-04-13T04:59:25.708Z,1.77
2023-04-13T05:01:58.669Z,1.75
2023-04-13T05:04:25.528Z,1.90
2023-04-13T05:06:52.716Z,1.67
2023-04-13T05:09:23.063Z,1.55
2023-04-13T05:11:56.318Z,2.00
2023-04-13T05:14:22.827Z,1.80
2023-04-13T05:16:50.385Z,1.92
2023-04-13T05:19:31.077Z,2.05
2023-04-13T05:22:03.770Z,1.88
2023-04-13T05:24:36.821Z,2.10
2023-04-13T05:27:09.868Z,1.73
2023-04-13T05:29:36.509Z,1.90
2023-04-13T05:32:03.646Z,1.80
2023-04-13T05:34:32.645Z,2.03
2023-04-13T05:37:06.124Z,1.80
2023-04-13T05:39:32.607Z,2.22
2023-04-13T05:41:59.225Z,1.70
2023-04-13T05:44:28.124Z,2.90
2023-04-13T05:46:55.127Z,1.95
2023-04-13T05:49:21.744Z,1.95
2023-04-13T05:51:48.912Z,1.80
2023-04-13T05:54:17.408Z,2.10
2023-04-13T05:56:47.686Z,1.83
2023-04-13T05:59:15.371Z,1.70
2023-04-13T06:01:42.191Z,1.77
2023-04-13T06:04:09.561Z,1.90
2023-04-13T06:06:36.224Z,2.22
2023-04-13T06:09:05.329Z,2.33
2023-04-13T06:11:31.848Z,2.10
2023-04-13T06:14:00.236Z,1.92
2023-04-13T06:16:26.977Z,2.42
2023-04-13T06:18:54.472Z,3.10
2023-04-13T06:21:21.067Z,2.13
2023-04-13T06:23:47.595Z,2.60
2023-04-13T06:26:25.000Z,1.85
2023-04-13T06:28:55.111Z,2.20
2023-04-13T06:31:23.340Z,1.92
2023-04-13T06:33:51.592Z,2.17
2023-04-13T06:36:23.981Z,2.20
2023-04-13T06:38:52.252Z,2.15
2023-04-13T06:41:19.969Z,1.90
2023-04-13T06:43:48.648Z,3.15
2023-04-13T06:46:32.897Z,2.47
2023-04-13T06:49:06.404Z,2.28
2023-04-13T06:51:33.943Z,2.47
2023-04-13T06:54:00.924Z,2.58
2023-04-13T06:56:27.536Z,2.08
2023-04-13T06:59:00.797Z,2.38
2023-04-13T07:01:28.952Z,2.22
2023-04-13T07:03:56.746Z,2.22
2023-04-13T07:06:24.141Z,2.17
2023-04-13T07:08:52.451Z,2.50
2023-04-13T07:11:19.116Z,2.35
2023-04-13T07:13:46.692Z,2.88
2023-04-13T07:16:14.523Z,2.95
2023-04-13T07:18:44.706Z,2.70
2023-04-13T07:21:11.640Z,2.40
2023-04-13T07:23:58.458Z,2.67
2023-04-13T07:26:24.989Z,2.85
2023-04-13T07:28:51.646Z,2.17
2023-04-13T07:31:19.511Z,2.90
2023-04-13T07:33:49.307Z,2.53
2023-04-13T07:36:20.997Z,2.97
2023-04-13T07:38:51.224Z,2.45
2023-04-13T07:41:22.077Z,2.55
2023-04-13T07:43:51.964Z,2.10
2023-04-13T07:46:20.272Z,2.38
2023-04-13T07:48:49.276Z,2.38
2023-04-13T07:51:23.229Z,1.95
2023-04-13T07:53:52.240Z,2.05
2023-04-13T07:56:19.453Z,2.75
2023-04-13T07:58:46.206Z,2.35
2023-04-13T08:01:13.147Z,2.60
2023-04-13T08:03:39.832Z,1.95
2023-04-13T08:08:40.481Z,2.00
2023-04-13T08:11:08.652Z,1.65
2023-04-13T08:13:35.833Z,2.20
2023-04-13T08:16:02.885Z,2.25
2023-04-13T08:18:32.155Z,1.85
2023-04-13T08:20:59.427Z,2.60
2023-04-13T08:23:29.649Z,2.17
2023-04-13T08:25:57.545Z,2.13
2023-04-13T08:28:24.069Z,2.20
2023-04-13T08:30:50.856Z,1.50
2023-04-13T08:33:17.473Z,1.70
2023-04-13T08:35:44.071Z,2.13
2023-04-13T08:38:12.568Z,2.50
2023-04-13T08:40:43.854Z,1.60
2023-04-13T08:43:15.641Z,1.83
2023-04-13T08:45:42.704Z,1.77
2023-04-13T08:48:14.760Z,2.25
2023-04-13T08:50:43.258Z,1.88
2023-04-13T08:53:10.538Z,1.50
2023-04-13T08:55:47.905Z,1.67
2023-04-13T08:58:22.682Z,1.80
2023-04-13T09:00:50.828Z,1.70
2023-04-13T09:03:24.094Z,1.67
2023-04-13T09:06:00.012Z,1.65
2023-04-13T09:08:34.580Z,2.03
2023-04-13T09:11:03.501Z,1.77
2023-04-13T09:13:30.139Z,2.28
2023-04-13T09:15:57.213Z,1.85
2023-04-13T09:18:33.707Z,1.70
2023-04-13T09:21:06.056Z,2.00
2023-04-13T09:23:32.608Z,1.60
2023-04-13T09:26:09.058Z,2.80
2023-04-13T09:28:46.779Z,1.90
2023-04-13T09:31:13.842Z,2.40
2023-04-13T09:33:45.981Z,1.83
2023-04-13T09:36:14.007Z,1.60
2023-04-13T09:38:40.492Z,2.22
2023-04-13T09:41:07.838Z,1.60
2023-04-13T09:43:36.611Z,2.08
2023-04-13T09:46:03.999Z,2.40
2023-04-13T09:48:31.023Z,2.03
2023-04-13T09:51:02.088Z,1.70
2023-04-13T09:53:39.400Z,2.63
2023-04-13T09:56:05.997Z,2.25
2023-04-13T09:58:32.481Z,1.83
2023-04-13T10:01:00.352Z,2.30
2023-04-13T10:03:27.787Z,1.75
2023-04-13T10:05:58.674Z,2.72
2023-04-13T10:08:37.178Z,2.67
2023-04-13T10:11:10.131Z,2.20
2023-04-13T10:13:49.631Z,1.70
2023-04-13T10:16:30.233Z,2.03
2023-04-13T10:19:02.372Z,1.80
2023-04-13T10:21:35.219Z,1.70
2023-04-13T10:26:37.774Z,1.80
2023-04-13T10:29:05.122Z,2.53
2023-04-13T10:31:46.590Z,1.83
2023-04-13T10:34:24.191Z,1.70
2023-04-13T10:36:54.079Z,1.48
2023-04-13T10:39:32.355Z,1.88
2023-04-13T10:42:09.578Z,1.90
2023-04-13T10:44:51.095Z,1.40
2023-04-13T10:47:22.007Z,1.40
2023-04-13T10:49:49.780Z,1.50
2023-04-13T10:52:16.924Z,1.73
2023-04-13T10:54:44.510Z,1.55
2023-04-13T10:57:12.042Z,1.70
2023-04-13T10:59:57.202Z,1.67
2023-04-13T11:02:29.474Z,1.67
2023-04-13T11:04:56.920Z,2.05
2023-04-13T11:07:25.412Z,2.63
2023-04-13T11:10:02.817Z,2.20
2023-04-13T11:12:30.024Z,2.22
2023-04-13T11:14:56.581Z,1.98
2023-04-13T11:17:23.386Z,1.80
2023-04-13T11:19:54.293Z,2.60
2023-04-13T11:22:28.822Z,2.05
2023-04-13T11:25:08.001Z,2.08
2023-04-13T11:27:35.195Z,2.55
2023-04-13T11:30:07.437Z,2.55
2023-04-13T11:32:34.270Z,2.22
2023-04-13T11:35:12.000Z,2.70
2023-04-13T11:37:43.107Z,2.50
2023-04-13T11:40:21.371Z,2.00
2023-04-13T11:42:50.401Z,3.13
2023-04-13T11:45:19.067Z,2.88
2023-04-13T11:47:48.250Z,2.53
2023-04-13T11:50:16.432Z,3.10
2023-04-13T11:52:46.405Z,2.45
2023-04-13T11:55:22.599Z,2.88
2023-04-13T11:57:50.260Z,3.13
2023-04-13T12:00:19.932Z,2.90
2023-04-13T12:03:00.431Z,2.78
2023-04-13T12:05:31.255Z,2.65
2023-04-13T12:07:59.303Z,3.30
2023-04-13T12:10:40.252Z,2.70
2023-04-13T12:16:04.993Z,1.90
2023-04-13T12:18:37.475Z,2.08
2023-04-13T12:21:05.931Z,2.08
2023-04-13T12:23:33.058Z,2.03
2023-04-13T12:26:25.994Z,2.38
2023-04-13T12:28:59.020Z,2.15
2023-04-13T12:31:33.803Z,2.20
2023-04-13T12:34:00.684Z,2.28
2023-04-13T12:36:31.474Z,2.40
2023-04-13T12:38:59.431Z,2.17
2023-04-13T12:41:26.650Z,2.28
2023-04-13T12:43:53.597Z,2.55
2023-04-13T12:46:20.561Z,2.63
2023-04-13T12:48:47.177Z,2.67
2023-04-13T12:51:13.662Z,2.10
2023-04-13T12:53:40.236Z,1.90
2023-04-13T12:56:07.361Z,2.13
2023-04-13T12:58:35.438Z,1.90
2023-04-13T13:01:02.820Z,2.85
2023-04-13T13:03:29.571Z,1.80
2023-04-13T13:05:56.279Z,1.90
2023-04-13T13:08:22.856Z,1.73
2023-04-13T13:10:49.542Z,1.80
2023-04-13T13:13:18.545Z,2.00
2023-04-13T13:15:45.018Z,1.92
2023-04-13T13:18:12.630Z,1.80
2023-04-13T13:20:41.366Z,1.73
2023-04-13T13:23:12.379Z,2.15
2023-04-13T13:25:42.406Z,2.20
2023-04-13T13:28:16.078Z,2.35
2023-04-13T13:30:43.028Z,2.08
2023-04-13T13:33:09.668Z,2.22
2023-04-13T13:35:36.250Z,2.25
2023-04-13T13:38:03.317Z,1.92
2023-04-13T13:40:29.874Z,1.77
2023-04-13T13:42:56.684Z,2.25
2023-04-13T13:45:23.922Z,1.77
2023-04-13T13:47:55.776Z,2.67
2023-04-13T13:50:31.234Z,1.95
2023-04-13T13:53:04.309Z,1.98
2023-04-13T13:55:37.068Z,1.73
2023-04-13T13:58:03.604Z,2.05
2023-04-13T14:00:31.105Z,2.08
2023-04-13T14:02:58.107Z,1.77
2023-04-13T14:05:24.736Z,1.52
2023-04-13T14:07:51.407Z,2.38
2023-04-13T14:10:17.951Z,2.22
2023-04-13T14:12:49.616Z,2.17
2023-04-13T14:15:17.498Z,1.77
2023-04-13T14:17:46.741Z,1.75
2023-04-13T14:20:17.110Z,2.20
2023-04-13T14:22:43.646Z,1.70
2023-04-13T14:25:10.586Z,2.10
2023-04-13T14:27:37.812Z,1.95
2023-04-13T14:30:05.225Z,2.20
2023-04-13T14:32:32.417Z,2.08
2023-04-13T14:35:00.284Z,4.70
2023-04-13T14:37:27.853Z,1.83
2023-04-13T14:39:55.354Z,1.83
2023-04-13T14:42:24.182Z,2.20
2023-04-13T14:44:51.764Z,1.80
2023-04-13T14:47:19.112Z,2.67
2023-04-13T14:49:47.207Z,2.60
2023-04-13T14:52:14.298Z,2.40
2023-04-13T14:54:41.013Z,2.83
2023-04-13T14:57:07.491Z,2.20
2023-04-13T14:59:33.968Z,2.60
2023-04-13T15:02:01.180Z,2.35
2023-04-13T15:04:28.151Z,2.28
2023-04-13T15:06:55.377Z,2.78
2023-04-13T15:09:22.497Z,2.17
2023-04-13T15:11:50.836Z,2.25
2023-04-13T15:14:17.566Z,2.33
2023-04-13T15:16:44.128Z,2.42
2023-04-13T15:19:10.696Z,2.65
2023-04-13T15:21:37.211Z,2.33
2023-04-13T15:24:04.097Z,2.20
2023-04-13T15:26:31.175Z,1.77
2023-04-13T15:28:58.156Z,2.20
2023-04-13T15:31:24.978Z,1.70
2023-04-13T15:33:51.812Z,1.70
2023-04-13T15:36:18.948Z,1.70
2023-04-13T15:38:45.510Z,1.75
2023-04-13T15:41:11.977Z,1.70
2023-04-13T15:43:38.586Z,1.58
2023-04-13T15:46:05.213Z,1.65
2023-04-13T15:48:31.873Z,1.40
2023-04-13T15:50:59.800Z,2.22
2023-04-13T15:53:27.256Z,2.22
2023-04-13T15:55:53.953Z,1.50
2023-04-13T15:58:20.480Z,1.98
2023-04-13T16:00:47.106Z,1.70
2023-04-13T16:03:13.668Z,1.80
2023-04-13T16:05:40.292Z,1.95
2023-04-13T16:08:07.952Z,2.10
2023-04-13T16:10:34.624Z,1.88
2023-04-13T16:13:02.641Z,1.85
2023-04-13T16:15:29.319Z,2.03
2023-04-13T16:17:56.939Z,2.03
2023-04-13T16:20:28.243Z,2.25
2023-04-13T16:22:59.167Z,2.03
2023-04-13T16:25:25.840Z,2.00
2023-04-13T16:27:54.172Z,2.25
2023-04-13T16:30:21.877Z,1.90
2023-04-13T16:32:49.604Z,2.50
2023-04-13T16:35:16.279Z,1.88
2023-04-13T16:37:42.935Z,1.98
2023-04-13T16:40:10.852Z,2.00
2023-04-13T16:42:38.945Z,1.77
2023-04-13T16:45:07.248Z,2.25
2023-04-13T16:47:33.838Z,1.80
2023-04-13T16:50:00.583Z,2.03
2023-04-13T16:52:27.057Z,2.05
2023-04-13T16:54:53.535Z,2.17
2023-04-13T16:57:19.973Z,1.75
2023-04-13T16:59:47.027Z,2.08
2023-04-13T17:02:30.130Z,2.42
2023-04-13T17:04:57.866Z,2.58
2023-04-13T17:07:26.711Z,2.42
2023-04-13T17:09:53.373Z,1.95
2023-04-13T17:12:21.578Z,2.35
2023-04-13T17:14:49.838Z,2.25
2023-04-13T17:17:16.502Z,2.20
2023-04-13T17:19:43.058Z,2.35
2023-04-13T17:22:09.651Z,2.38
2023-04-13T17:24:36.707Z,2.67
2023-04-13T17:27:03.173Z,2.75
2023-04-13T17:29:29.663Z,2.50
2023-04-13T17:31:56.527Z,2.15
2023-04-13T17:34:23.024Z,2.63
2023-04-13T17:36:49.627Z,3.67
2023-04-13T17:39:16.120Z,4.63
2023-04-13T17:41:43.281Z,5.55
2023-04-13T17:44:09.974Z,2.80
2023-04-13T17:46:36.606Z,3.08
2023-04-13T17:49:03.225Z,5.95
2023-04-13T17:51:30.756Z,5.63
2023-04-13T17:53:57.279Z,5.97
2023-04-13T17:56:23.745Z,4.22
2023-04-13T17:58:50.379Z,4.60
2023-04-13T18:01:16.944Z,4.30
2023-04-13T18:03:43.782Z,4.90
2023-04-13T18:06:10.560Z,3.88
2023-04-13T18:08:37.016Z,3.85
2023-04-13T18:11:03.642Z,5.25
2023-04-13T18:13:31.421Z,5.93
2023-04-13T18:15:58.039Z,4.13
2023-04-13T18:18:25.053Z,2.50
2023-04-13T18:20:52.360Z,20.05
2023-04-13T18:23:22.113Z,10.95
2023-04-13T18:25:49.598Z,19.50
2023-04-13T18:28:17.322Z,6.05
2023-04-13T18:30:46.541Z,3.10
2023-04-13T18:33:13.190Z,4.63
2023-04-13T18:35:46.154Z,9.77
2023-04-13T18:38:12.716Z,4.32
2023-04-13T18:40:40.291Z,5.07
2023-04-13T18:43:06.836Z,4.13
2023-04-13T18:45:33.634Z,4.10
2023-04-13T18:48:00.409Z,2.40
2023-04-13T18:50:27.028Z,2.88
2023-04-13T18:52:53.583Z,2.45
2023-04-13T18:55:20.225Z,2.22
2023-04-13T18:57:46.873Z,2.70
2023-04-13T19:00:13.973Z,4.40
2023-04-13T19:02:42.103Z,6.75
2023-04-13T19:05:10.124Z,4.40
2023-04-13T19:07:39.111Z,2.88
2023-04-13T19:10:06.535Z,3.30
2023-04-13T19:12:33.027Z,3.33
2023-04-13T19:14:59.535Z,3.28
2023-04-13T19:17:29.416Z,4.53
2023-04-13T19:19:56.789Z,3.97
2023-04-13T19:22:23.240Z,4.53
2023-04-13T19:24:49.681Z,5.00
2023-04-13T19:27:16.273Z,4.57
2023-04-13T19:29:42.707Z,3.70
2023-04-13T19:32:12.369Z,3.80
2023-04-13T19:34:38.987Z,3.20
2023-04-13T19:37:05.551Z,3.67
2023-04-13T19:39:32.190Z,3.22
2023-04-13T19:41:58.713Z,4.32
2023-04-13T19:44:25.982Z,3.92
2023-04-13T19:46:52.487Z,2.88
2023-04-13T19:49:18.994Z,3.38
2023-04-13T19:51:46.212Z,5.85
2023-04-13T19:54:13.511Z,6.93
2023-04-13T19:56:40.521Z,5.45
2023-04-13T19:59:07.083Z,4.70
2023-04-13T20:01:34.337Z,2.65
2023-04-13T20:04:03.771Z,2.60
2023-04-13T20:06:33.029Z,2.63
2023-04-13T20:09:08.840Z,2.67
2023-04-13T20:11:35.754Z,4.20
2023-04-13T20:14:02.674Z,3.75
2023-04-13T20:16:29.147Z,3.42
2023-04-13T20:18:55.695Z,3.22
2023-04-13T20:21:22.182Z,3.80
2023-04-13T20:23:48.658Z,2.88
2023-04-13T20:26:15.489Z,3.20
2023-04-13T20:28:41.962Z,2.70
2023-04-13T20:31:08.552Z,3.90
2023-04-13T20:33:35.202Z,6.13
2023-04-13T20:36:03.213Z,5.80
2023-04-13T20:38:30.002Z,5.45
2023-04-13T20:40:57.112Z,5.03
2023-04-13T20:43:24.189Z,6.22
2023-04-13T20:45:51.544Z,6.97
2023-04-13T20:50:48.058Z,5.63
2023-04-13T20:53:14.946Z,6.60
2023-04-13T20:55:42.152Z,4.60
2023-04-13T20:58:10.675Z,5.72
2023-04-13T21:00:38.262Z,6.65
2023-04-13T21:03:08.810Z,5.65
2023-04-13T21:05:36.184Z,5.03
2023-04-13T21:08:02.832Z,5.15
2023-04-13T21:10:29.297Z,4.90
2023-04-13T21:12:55.838Z,4.82
2023-04-13T21:15:22.315Z,4.32
2023-04-13T21:17:48.989Z,4.93
2023-04-13T21:20:15.603Z,4.25
2023-04-13T21:22:42.101Z,4.22
2023-04-13T21:25:08.845Z,4.80
2023-04-13T21:27:35.522Z,4.22
2023-04-13T21:30:02.226Z,5.95
2023-04-13T21:32:28.815Z,4.82
2023-04-13T21:34:57.424Z,4.65
2023-04-13T21:37:24.005Z,3.92
2023-04-13T21:39:50.507Z,4.55
2023-04-13T21:42:17.114Z,5.20
2023-04-13T21:44:43.734Z,4.47
2023-04-13T21:47:10.344Z,4.97
2023-04-13T21:49:36.818Z,5.78
2023-04-13T21:52:03.450Z,3.88
2023-04-13T21:54:29.978Z,4.22
2023-04-13T21:56:56.473Z,4.10
2023-04-13T21:59:27.165Z,5.43
2023-04-13T22:01:54.610Z,3.72
2023-04-13T22:04:21.328Z,3.45
2023-04-13T22:06:48.160Z,3.88
2023-04-13T22:09:14.658Z,4.15
2023-04-13T22:11:41.406Z,3.25
2023-04-13T22:14:07.947Z,3.72
2023-04-13T22:16:34.507Z,3.20
2023-04-13T22:19:01.254Z,3.67
2023-04-13T22:21:28.744Z,3.75
2023-04-13T22:23:55.386Z,3.55
2023-04-13T22:26:21.957Z,3.90
2023-04-13T22:28:48.472Z,3.05
2023-04-13T22:31:16.681Z,4.10
2023-04-13T22:33:43.190Z,3.30
2023-04-13T22:36:19.355Z,3.60
2023-04-13T22:38:46.854Z,3.50
2023-04-13T22:41:13.352Z,3.78
2023-04-13T22:43:39.918Z,3.88
2023-04-13T22:46:06.426Z,3.38
2023-04-13T22:48:32.926Z,3.03
2023-04-13T22:51:03.625Z,3.40
2023-04-13T22:53:30.611Z,3.20
2023-04-13T22:55:57.291Z,3.33
2023-04-13T22:58:23.931Z,3.72
2023-04-13T23:00:50.386Z,3.33
2023-04-13T23:03:17.053Z,3.78
2023-04-13T23:05:43.653Z,2.75
2023-04-13T23:08:10.566Z,2.65
2023-04-13T23:10:37.315Z,3.10
2023-04-13T23:13:04.660Z,2.67
2023-04-13T23:15:31.128Z,2.58
2023-04-13T23:17:57.731Z,2.90
2023-04-13T23:20:24.298Z,2.65
2023-04-13T23:22:51.052Z,2.88
2023-04-13T23:25:17.548Z,3.38
2023-04-13T23:27:44.116Z,2.60
2023-04-13T23:30:11.164Z,2.53
2023-04-13T23:32:37.800Z,3.28
2023-04-13T23:35:05.283Z,2.65
2023-04-13T23:37:31.898Z,2.70
2023-04-13T23:39:58.531Z,2.67
2023-04-13T23:42:24.998Z,3.00
2023-04-13T23:44:51.579Z,3.00
2023-04-13T23:47:18.208Z,2.80
2023-04-13T23:49:46.754Z,2.83
2023-04-13T23:52:13.210Z,2.85
2023-04-13T23:54:39.671Z,2.63
2023-04-13T23:57:06.126Z,3.50
2023-04-13T23:59:32.610Z,2.95
